ADDS TAF Board (Experimental) INFO Settings
IDs:

KMCI - Kansas City Intl, MO, US

Issued at 1120 UTC 24 May 2015
Updated at: 1331 UTC 24 May 2015
Time1320Z 24/14Z 24/15Z 24/16Z 24/17Z 24/18Z 24/19Z 24/20Z 24/21Z 24/22Z 24/23Z 25/00Z 25/01Z 25/02Z
Type OBS PRVL PRVL PRVL PRVL PRVL PRVL PRVL PRVL PRVL PRVL PRVL
  [TEMP]  
PRVL
  [TEMP]  
PRVL
  [TEMP]  
VIS 8 >6 >6 >6 >6 >6 >6 >6 >6 >6 >6 5
  [3]  
5
  [3]  
5
  [3]  
CIG 10 22 22 22 22 22 22 22 22 22 22 15
  [10]  
15
  [10]  
15
  [10]  
Cover OVC BKN BKN BKN BKN BKN BKN BKN BKN BKN BKN BKN
  [OVC]  
BKN
  [OVC]  
BKN
  [OVC]  
FltCat MVFR MVFR MVFR MVFR MVFR MVFR MVFR MVFR MVFR MVFR MVFR MVFR
  [MVFR]  
MVFR
  [MVFR]  
MVFR
  [MVFR]  
WX -DZ VCSH VCSH VCSH VCSH VCSH VCSH VCSH VCSH VCSH VCSH -RA BR
  [RA BR]  
-RA BR
  [RA BR]  
-RA BR
  [RA BR]  
WDir 190 160 160 160 160 160 160 160 160 160 160 180
[180]
180
[180]
180
[180]
WSpd 8 11 11 11 11 11 11 11 11 11 11 10
  [10]  
10
  [10]  
10
  [10]  
WGst -- -- -- -- -- -- -- -- -- -- -- --
  [--]  
--
  [--]  
--
  [--]  
R01/19
XWnd -0 -6 -6 -6 -6 -6 -6 -6 -6 -6 -6 -2 -2 -2
XGst -- -- -- -- -- -- -- -- -- -- -- 0 0 0
HWnd -8 -9 -9 -9 -9 -9 -9 -9 -9 -9 -9 -10 -10 -10
HGst -- -- -- -- -- -- -- -- -- -- -- 0 0 0
R09/27
XWnd -8 -10 -10 -10 -10 -10 -10 -10 -10 -10 -10 -10 -10 -10
XGst -- -- -- -- -- -- -- -- -- -- -- 0 0 0
HWnd -1 5 5 5 5 5 5 5 5 5 5 1 1 1
HGst -- -- -- -- -- -- -- -- -- -- -- 0 0 0

NOTE: TEMPO conditions in [brackets]. Keep in mind TEMPO conditions might be better (lower impact) than prevailing conditions.

Raw TAF
KMCI 241120Z 2412/2512 14009KT 5SM -RA BR OVC007
  FM241400 16011KT P6SM VCSH BKN022
  FM250000 18010KT 5SM -RA BR BKN015
  TEMPO 2500/2504 3SM RA BR OVC010


Raw METAR
KMCI 241320Z 19008KT 8SM -DZ FEW006 BKN010 OVC019 18/18 A2989 RMK AO2 RAE1257DZB1257 P0000 T01780178
KMCI 241253Z 19007KT 2SM -RA BR FEW006 BKN010 OVC019 18/18 A2990 RMK AO2 SFC VIS 4 SLP118 P0007 T01780178
KMCI 241251Z 20006KT 2SM -RA BR FEW006 BKN010 OVC021 18/18 A2990 RMK AO2 SFC VIS 3 P0007
KMCI 241153Z 16009KT 1 1/2SM -RA BR OVC006 17/17 A2988 RMK AO2 SFC VIS 2 RAE1057B32 SLP112 P0001 60054 70203 T01720172 10172 20161 55000
KMCI 241147Z 16009KT 2SM R19R/6000VP6000FT -RA BR BCFG OVC007 17/17 A2988 RMK AO2 TWR VIS 3 RAE1057B32 P0001
KMCI 241053Z 15009KT 6SM -RA BR OVC007 17/16 A2987 RMK AO2 SLP110 P0009 T01670161

METAR Board
Radar Display
Forecast Discussion

TAF Board Legend

Potential Impact
Threat None Slight Moderate High
Visibility (sm) ≥5.1 5.1>X≥3 3>X≥1 <1
Ceiling (100 ft) ≥30.1 30.1>X≥10 10>X≥5 <5
Wind Speed (kt) <10 10≤X<20 20≤X<30 ≥30
Wind Gust (kt) <15 15≤X<25 25≤X<35 ≥35
Weather No Wx Reported VCTS,-TS,-FZRA,SN TS,FZRA +TS,+FZRA,+SN